sensor_id;sensor_type;location;lat;lon;timestamp;P1;durP1;ratioP1;P2;durP2;ratioP2
78672;SDS011;67988;60.086;30.354;2023-06-22T00:02:17;5.47;;;3.05;;
78672;SDS011;67988;60.086;30.354;2023-06-22T00:04:45;5.80;;;3.13;;
78672;SDS011;67988;60.086;30.354;2023-06-22T00:07:12;5.55;;;3.05;;
78672;SDS011;67988;60.086;30.354;2023-06-22T00:09:40;4.50;;;3.20;;
78672;SDS011;67988;60.086;30.354;2023-06-22T00:12:08;6.38;;;3.35;;
78672;SDS011;67988;60.086;30.354;2023-06-22T00:14:35;10.27;;;4.40;;
78672;SDS011;67988;60.086;30.354;2023-06-22T00:17:02;6.90;;;3.20;;
78672;SDS011;67988;60.086;30.354;2023-06-22T00:19:29;7.93;;;4.20;;
78672;SDS011;67988;60.086;30.354;2023-06-22T00:21:57;6.93;;;4.55;;
78672;SDS011;67988;60.086;30.354;2023-06-22T00:24:25;12.13;;;3.92;;
78672;SDS011;67988;60.086;30.354;2023-06-22T00:26:53;7.03;;;3.65;;
78672;SDS011;67988;60.086;30.354;2023-06-22T00:29:21;8.50;;;3.80;;
78672;SDS011;67988;60.086;30.354;2023-06-22T00:31:48;12.82;;;4.13;;
78672;SDS011;67988;60.086;30.354;2023-06-22T00:34:15;8.82;;;3.63;;
78672;SDS011;67988;60.086;30.354;2023-06-22T00:36:42;6.05;;;3.63;;
78672;SDS011;67988;60.086;30.354;2023-06-22T00:39:09;8.52;;;3.88;;
78672;SDS011;67988;60.086;30.354;2023-06-22T00:41:37;7.93;;;4.78;;
78672;SDS011;67988;60.086;30.354;2023-06-22T00:44:05;8.93;;;3.80;;
78672;SDS011;67988;60.086;30.354;2023-06-22T00:46:33;8.70;;;3.13;;
78672;SDS011;67988;60.086;30.354;2023-06-22T00:49:01;7.22;;;3.35;;
78672;SDS011;67988;60.086;30.354;2023-06-22T00:51:30;11.48;;;3.88;;
78672;SDS011;67988;60.086;30.354;2023-06-22T00:53:58;5.55;;;3.45;;
78672;SDS011;67988;60.086;30.354;2023-06-22T00:56:25;4.47;;;2.85;;
78672;SDS011;67988;60.086;30.354;2023-06-22T00:58:55;5.03;;;3.10;;
78672;SDS011;67988;60.086;30.354;2023-06-22T01:01:25;7.07;;;3.70;;
78672;SDS011;67988;60.086;30.354;2023-06-22T01:03:52;11.18;;;3.65;;
78672;SDS011;67988;60.086;30.354;2023-06-22T01:06:25;6.18;;;3.38;;
78672;SDS011;67988;60.086;30.354;2023-06-22T01:09:00;6.70;;;3.50;;
78672;SDS011;67988;60.086;30.354;2023-06-22T01:11:35;6.22;;;2.90;;
78672;SDS011;67988;60.086;30.354;2023-06-22T01:14:09;6.53;;;3.17;;
78672;SDS011;67988;60.086;30.354;2023-06-22T01:16:43;4.85;;;2.58;;
78672;SDS011;67988;60.086;30.354;2023-06-22T01:19:16;5.25;;;3.38;;
78672;SDS011;67988;60.086;30.354;2023-06-22T01:21:55;7.95;;;3.58;;
78672;SDS011;67988;60.086;30.354;2023-06-22T01:24:26;6.07;;;2.70;;
78672;SDS011;67988;60.086;30.354;2023-06-22T01:27:05;4.75;;;3.85;;
78672;SDS011;67988;60.086;30.354;2023-06-22T01:29:41;5.38;;;3.38;;
78672;SDS011;67988;60.086;30.354;2023-06-22T01:32:09;5.88;;;2.80;;
78672;SDS011;67988;60.086;30.354;2023-06-22T01:34:38;5.40;;;3.33;;
78672;SDS011;67988;60.086;30.354;2023-06-22T01:37:06;7.72;;;3.55;;
78672;SDS011;67988;60.086;30.354;2023-06-22T01:39:34;6.03;;;3.00;;
78672;SDS011;67988;60.086;30.354;2023-06-22T01:42:02;5.25;;;4.35;;
78672;SDS011;67988;60.086;30.354;2023-06-22T01:44:31;9.82;;;3.40;;
78672;SDS011;67988;60.086;30.354;2023-06-22T01:47:01;7.20;;;3.15;;
78672;SDS011;67988;60.086;30.354;2023-06-22T01:49:28;12.02;;;3.38;;
78672;SDS011;67988;60.086;30.354;2023-06-22T01:51:56;7.63;;;3.70;;
78672;SDS011;67988;60.086;30.354;2023-06-22T01:54:23;5.78;;;3.45;;
78672;SDS011;67988;60.086;30.354;2023-06-22T01:56:50;6.30;;;3.17;;
78672;SDS011;67988;60.086;30.354;2023-06-22T01:59:20;8.85;;;4.03;;
78672;SDS011;67988;60.086;30.354;2023-06-22T02:01:54;8.80;;;3.30;;
78672;SDS011;67988;60.086;30.354;2023-06-22T02:04:30;6.95;;;3.00;;
78672;SDS011;67988;60.086;30.354;2023-06-22T02:07:01;6.60;;;3.08;;
78672;SDS011;67988;60.086;30.354;2023-06-22T02:09:35;4.10;;;2.58;;
78672;SDS011;67988;60.086;30.354;2023-06-22T02:12:08;9.23;;;3.88;;
78672;SDS011;67988;60.086;30.354;2023-06-22T02:14:39;4.97;;;3.30;;
78672;SDS011;67988;60.086;30.354;2023-06-22T02:17:08;6.15;;;3.20;;
78672;SDS011;67988;60.086;30.354;2023-06-22T02:19:37;3.97;;;2.85;;
78672;SDS011;67988;60.086;30.354;2023-06-22T02:22:05;8.27;;;4.47;;
78672;SDS011;67988;60.086;30.354;2023-06-22T02:24:32;5.32;;;3.17;;
78672;SDS011;67988;60.086;30.354;2023-06-22T02:26:59;4.60;;;2.47;;
78672;SDS011;67988;60.086;30.354;2023-06-22T02:29:27;5.75;;;3.22;;
78672;SDS011;67988;60.086;30.354;2023-06-22T02:34:21;7.07;;;3.20;;
78672;SDS011;67988;60.086;30.354;2023-06-22T02:36:51;8.07;;;4.78;;
78672;SDS011;67988;60.086;30.354;2023-06-22T02:39:19;5.95;;;3.03;;
78672;SDS011;67988;60.086;30.354;2023-06-22T02:41:48;6.97;;;3.50;;
78672;SDS011;67988;60.086;30.354;2023-06-22T02:44:16;6.85;;;3.90;;
78672;SDS011;67988;60.086;30.354;2023-06-22T02:46:43;14.32;;;5.38;;
78672;SDS011;67988;60.086;30.354;2023-06-22T02:49:11;5.30;;;4.45;;
78672;SDS011;67988;60.086;30.354;2023-06-22T02:51:41;8.57;;;4.97;;
78672;SDS011;67988;60.086;30.354;2023-06-22T02:54:13;8.95;;;4.55;;
78672;SDS011;67988;60.086;30.354;2023-06-22T02:56:41;10.30;;;4.18;;
78672;SDS011;67988;60.086;30.354;2023-06-22T02:59:09;6.57;;;3.58;;
78672;SDS011;67988;60.086;30.354;2023-06-22T03:01:37;8.50;;;3.33;;
78672;SDS011;67988;60.086;30.354;2023-06-22T03:04:14;7.93;;;4.15;;
78672;SDS011;67988;60.086;30.354;2023-06-22T03:06:41;8.25;;;4.28;;
78672;SDS011;67988;60.086;30.354;2023-06-22T03:09:08;15.45;;;5.20;;
78672;SDS011;67988;60.086;30.354;2023-06-22T03:11:37;9.05;;;4.38;;
78672;SDS011;67988;60.086;30.354;2023-06-22T03:14:04;8.80;;;3.33;;
78672;SDS011;67988;60.086;30.354;2023-06-22T03:16:31;7.88;;;3.85;;
78672;SDS011;67988;60.086;30.354;2023-06-22T03:18:59;5.63;;;2.75;;
78672;SDS011;67988;60.086;30.354;2023-06-22T03:21:27;6.68;;;3.95;;
78672;SDS011;67988;60.086;30.354;2023-06-22T03:23:55;4.43;;;3.50;;
78672;SDS011;67988;60.086;30.354;2023-06-22T03:26:22;7.63;;;3.58;;
78672;SDS011;67988;60.086;30.354;2023-06-22T03:28:53;7.03;;;3.08;;
78672;SDS011;67988;60.086;30.354;2023-06-22T03:31:20;9.85;;;4.65;;
78672;SDS011;67988;60.086;30.354;2023-06-22T03:33:48;9.15;;;3.90;;
78672;SDS011;67988;60.086;30.354;2023-06-22T03:36:15;5.47;;;2.53;;
78672;SDS011;67988;60.086;30.354;2023-06-22T03:38:44;9.20;;;4.15;;
78672;SDS011;67988;60.086;30.354;2023-06-22T03:41:12;11.07;;;4.80;;
78672;SDS011;67988;60.086;30.354;2023-06-22T03:46:07;7.28;;;3.08;;
78672;SDS011;67988;60.086;30.354;2023-06-22T03:48:34;6.30;;;4.57;;
78672;SDS011;67988;60.086;30.354;2023-06-22T03:51:02;8.68;;;5.03;;
78672;SDS011;67988;60.086;30.354;2023-06-22T03:53:29;6.63;;;4.57;;
78672;SDS011;67988;60.086;30.354;2023-06-22T03:55:56;6.72;;;4.03;;
78672;SDS011;67988;60.086;30.354;2023-06-22T03:58:23;7.18;;;4.03;;
78672;SDS011;67988;60.086;30.354;2023-06-22T04:00:51;16.50;;;4.40;;
78672;SDS011;67988;60.086;30.354;2023-06-22T04:03:20;9.05;;;3.75;;
78672;SDS011;67988;60.086;30.354;2023-06-22T04:05:47;7.70;;;3.95;;
78672;SDS011;67988;60.086;30.354;2023-06-22T04:08:14;7.53;;;3.85;;
78672;SDS011;67988;60.086;30.354;2023-06-22T04:13:09;7.65;;;4.05;;
78672;SDS011;67988;60.086;30.354;2023-06-22T04:15:36;14.75;;;3.80;;
78672;SDS011;67988;60.086;30.354;2023-06-22T04:20:32;4.28;;;2.80;;
78672;SDS011;67988;60.086;30.354;2023-06-22T04:22:59;12.75;;;4.20;;
78672;SDS011;67988;60.086;30.354;2023-06-22T04:25:26;5.50;;;3.95;;
78672;SDS011;67988;60.086;30.354;2023-06-22T04:27:53;11.77;;;5.18;;
78672;SDS011;67988;60.086;30.354;2023-06-22T04:30:20;6.45;;;3.63;;
78672;SDS011;67988;60.086;30.354;2023-06-22T04:32:47;7.15;;;3.60;;
78672;SDS011;67988;60.086;30.354;2023-06-22T04:35:21;8.82;;;3.80;;
78672;SDS011;67988;60.086;30.354;2023-06-22T04:37:50;8.93;;;3.95;;
78672;SDS011;67988;60.086;30.354;2023-06-22T04:40:20;8.60;;;3.25;;
78672;SDS011;67988;60.086;30.354;2023-06-22T04:42:48;13.48;;;4.75;;
78672;SDS011;67988;60.086;30.354;2023-06-22T04:45:19;7.88;;;3.70;;
78672;SDS011;67988;60.086;30.354;2023-06-22T04:47:47;9.85;;;3.90;;
78672;SDS011;67988;60.086;30.354;2023-06-22T04:50:14;7.47;;;5.05;;
78672;SDS011;67988;60.086;30.354;2023-06-22T04:52:41;9.80;;;3.75;;
78672;SDS011;67988;60.086;30.354;2023-06-22T04:55:10;4.65;;;3.13;;
78672;SDS011;67988;60.086;30.354;2023-06-22T04:57:37;10.32;;;3.97;;
78672;SDS011;67988;60.086;30.354;2023-06-22T05:00:05;12.15;;;4.47;;
78672;SDS011;67988;60.086;30.354;2023-06-22T05:02:42;12.45;;;4.10;;
78672;SDS011;67988;60.086;30.354;2023-06-22T05:05:10;5.68;;;3.53;;
78672;SDS011;67988;60.086;30.354;2023-06-22T05:07:40;4.30;;;3.03;;
78672;SDS011;67988;60.086;30.354;2023-06-22T05:10:10;9.48;;;4.50;;
78672;SDS011;67988;60.086;30.354;2023-06-22T05:12:38;7.50;;;3.17;;
78672;SDS011;67988;60.086;30.354;2023-06-22T05:15:06;6.90;;;3.40;;
78672;SDS011;67988;60.086;30.354;2023-06-22T05:17:34;9.32;;;4.35;;
78672;SDS011;67988;60.086;30.354;2023-06-22T05:20:01;12.68;;;4.13;;
78672;SDS011;67988;60.086;30.354;2023-06-22T05:22:31;10.95;;;3.17;;
78672;SDS011;67988;60.086;30.354;2023-06-22T05:24:58;5.85;;;3.13;;
78672;SDS011;67988;60.086;30.354;2023-06-22T05:27:27;9.25;;;3.95;;
78672;SDS011;67988;60.086;30.354;2023-06-22T05:29:54;6.45;;;4.00;;
78672;SDS011;67988;60.086;30.354;2023-06-22T05:32:21;9.75;;;3.63;;
78672;SDS011;67988;60.086;30.354;2023-06-22T05:34:48;9.02;;;4.32;;
78672;SDS011;67988;60.086;30.354;2023-06-22T05:37:15;8.30;;;5.07;;
78672;SDS011;67988;60.086;30.354;2023-06-22T05:39:42;12.63;;;3.72;;
78672;SDS011;67988;60.086;30.354;2023-06-22T05:42:09;6.85;;;4.25;;
78672;SDS011;67988;60.086;30.354;2023-06-22T05:44:37;10.70;;;4.50;;
78672;SDS011;67988;60.086;30.354;2023-06-22T05:47:06;5.45;;;3.13;;
78672;SDS011;67988;60.086;30.354;2023-06-22T05:49:33;12.63;;;4.20;;
78672;SDS011;67988;60.086;30.354;2023-06-22T05:52:00;8.63;;;3.72;;
78672;SDS011;67988;60.086;30.354;2023-06-22T05:54:27;12.02;;;5.75;;
78672;SDS011;67988;60.086;30.354;2023-06-22T05:56:54;8.98;;;3.42;;
78672;SDS011;67988;60.086;30.354;2023-06-22T05:59:21;4.63;;;3.13;;
78672;SDS011;67988;60.086;30.354;2023-06-22T06:01:49;6.55;;;3.33;;
78672;SDS011;67988;60.086;30.354;2023-06-22T06:04:17;21.08;;;4.40;;
78672;SDS011;67988;60.086;30.354;2023-06-22T06:06:44;4.97;;;3.45;;
78672;SDS011;67988;60.086;30.354;2023-06-22T06:09:12;6.00;;;3.38;;
78672;SDS011;67988;60.086;30.354;2023-06-22T06:11:39;19.75;;;5.00;;
78672;SDS011;67988;60.086;30.354;2023-06-22T06:14:06;30.65;;;6.53;;
78672;SDS011;67988;60.086;30.354;2023-06-22T06:16:33;24.02;;;5.13;;
78672;SDS011;67988;60.086;30.354;2023-06-22T06:19:02;9.80;;;4.43;;
78672;SDS011;67988;60.086;30.354;2023-06-22T06:21:29;10.73;;;4.20;;
78672;SDS011;67988;60.086;30.354;2023-06-22T06:23:56;8.93;;;4.75;;
78672;SDS011;67988;60.086;30.354;2023-06-22T06:26:23;25.38;;;4.55;;
78672;SDS011;67988;60.086;30.354;2023-06-22T06:28:55;7.38;;;3.28;;
78672;SDS011;67988;60.086;30.354;2023-06-22T06:31:22;14.90;;;4.80;;
78672;SDS011;67988;60.086;30.354;2023-06-22T06:33:49;8.50;;;3.67;;
78672;SDS011;67988;60.086;30.354;2023-06-22T06:36:18;5.53;;;3.75;;
78672;SDS011;67988;60.086;30.354;2023-06-22T06:38:45;10.50;;;4.63;;
78672;SDS011;67988;60.086;30.354;2023-06-22T06:41:13;24.00;;;7.10;;
78672;SDS011;67988;60.086;30.354;2023-06-22T06:43:40;15.75;;;3.67;;
78672;SDS011;67988;60.086;30.354;2023-06-22T06:46:08;9.95;;;4.40;;
78672;SDS011;67988;60.086;30.354;2023-06-22T06:48:35;94.18;;;18.13;;
78672;SDS011;67988;60.086;30.354;2023-06-22T06:51:02;28.88;;;6.15;;
78672;SDS011;67988;60.086;30.354;2023-06-22T06:53:30;23.55;;;5.28;;
78672;SDS011;67988;60.086;30.354;2023-06-22T06:55:57;25.27;;;6.55;;
78672;SDS011;67988;60.086;30.354;2023-06-22T06:58:25;10.68;;;4.40;;
78672;SDS011;67988;60.086;30.354;2023-06-22T07:00:51;27.98;;;7.50;;
78672;SDS011;67988;60.086;30.354;2023-06-22T07:03:19;10.10;;;4.95;;
78672;SDS011;67988;60.086;30.354;2023-06-22T07:05:46;14.18;;;5.60;;
78672;SDS011;67988;60.086;30.354;2023-06-22T07:08:12;9.63;;;3.67;;
78672;SDS011;67988;60.086;30.354;2023-06-22T07:10:41;15.13;;;3.95;;
78672;SDS011;67988;60.086;30.354;2023-06-22T07:13:08;24.58;;;7.93;;
78672;SDS011;67988;60.086;30.354;2023-06-22T07:15:35;26.52;;;7.40;;
78672;SDS011;67988;60.086;30.354;2023-06-22T07:18:02;12.98;;;5.15;;
78672;SDS011;67988;60.086;30.354;2023-06-22T07:20:29;9.30;;;4.05;;
78672;SDS011;67988;60.086;30.354;2023-06-22T07:22:56;16.40;;;4.57;;
78672;SDS011;67988;60.086;30.354;2023-06-22T07:27:58;10.60;;;3.78;;
78672;SDS011;67988;60.086;30.354;2023-06-22T07:30:27;12.25;;;5.80;;
78672;SDS011;67988;60.086;30.354;2023-06-22T07:32:55;12.25;;;3.83;;
78672;SDS011;67988;60.086;30.354;2023-06-22T07:35:22;7.95;;;4.38;;
78672;SDS011;67988;60.086;30.354;2023-06-22T07:37:50;10.00;;;3.65;;
78672;SDS011;67988;60.086;30.354;2023-06-22T07:40:17;27.52;;;5.38;;
78672;SDS011;67988;60.086;30.354;2023-06-22T07:42:44;26.95;;;5.93;;
78672;SDS011;67988;60.086;30.354;2023-06-22T07:45:14;9.75;;;3.70;;
78672;SDS011;67988;60.086;30.354;2023-06-22T07:47:41;36.42;;;6.72;;
78672;SDS011;67988;60.086;30.354;2023-06-22T07:50:09;21.80;;;5.47;;
78672;SDS011;67988;60.086;30.354;2023-06-22T07:52:36;22.80;;;4.57;;
78672;SDS011;67988;60.086;30.354;2023-06-22T07:55:04;12.23;;;3.88;;
78672;SDS011;67988;60.086;30.354;2023-06-22T07:57:31;20.83;;;4.78;;
78672;SDS011;67988;60.086;30.354;2023-06-22T08:00:02;6.32;;;3.58;;
78672;SDS011;67988;60.086;30.354;2023-06-22T08:02:39;13.07;;;4.03;;
78672;SDS011;67988;60.086;30.354;2023-06-22T08:05:07;8.90;;;3.97;;
78672;SDS011;67988;60.086;30.354;2023-06-22T08:07:35;13.73;;;4.97;;
78672;SDS011;67988;60.086;30.354;2023-06-22T08:10:03;6.30;;;3.35;;
78672;SDS011;67988;60.086;30.354;2023-06-22T08:12:30;16.73;;;4.47;;
78672;SDS011;67988;60.086;30.354;2023-06-22T08:17:24;9.00;;;3.92;;
78672;SDS011;67988;60.086;30.354;2023-06-22T08:19:53;13.73;;;3.67;;
78672;SDS011;67988;60.086;30.354;2023-06-22T08:22:20;11.18;;;4.03;;
78672;SDS011;67988;60.086;30.354;2023-06-22T08:24:47;10.80;;;4.05;;
78672;SDS011;67988;60.086;30.354;2023-06-22T08:27:14;9.88;;;3.50;;
78672;SDS011;67988;60.086;30.354;2023-06-22T08:29:43;8.50;;;3.50;;
78672;SDS011;67988;60.086;30.354;2023-06-22T08:32:11;7.95;;;3.85;;
78672;SDS011;67988;60.086;30.354;2023-06-22T08:34:38;7.07;;;3.95;;
78672;SDS011;67988;60.086;30.354;2023-06-22T08:37:08;5.43;;;2.95;;
78672;SDS011;67988;60.086;30.354;2023-06-22T08:39:36;26.63;;;4.35;;
78672;SDS011;67988;60.086;30.354;2023-06-22T08:42:05;10.50;;;4.60;;
78672;SDS011;67988;60.086;30.354;2023-06-22T08:44:33;12.77;;;5.70;;
78672;SDS011;67988;60.086;30.354;2023-06-22T08:47:00;9.35;;;4.43;;
78672;SDS011;67988;60.086;30.354;2023-06-22T08:49:29;13.02;;;4.28;;
78672;SDS011;67988;60.086;30.354;2023-06-22T08:51:55;11.02;;;4.55;;
78672;SDS011;67988;60.086;30.354;2023-06-22T08:54:24;20.55;;;4.57;;
78672;SDS011;67988;60.086;30.354;2023-06-22T08:56:51;16.83;;;6.68;;
78672;SDS011;67988;60.086;30.354;2023-06-22T09:01:45;12.13;;;5.55;;
78672;SDS011;67988;60.086;30.354;2023-06-22T09:04:14;17.30;;;5.38;;
78672;SDS011;67988;60.086;30.354;2023-06-22T09:06:41;16.30;;;5.65;;
78672;SDS011;67988;60.086;30.354;2023-06-22T09:09:10;6.25;;;3.95;;
78672;SDS011;67988;60.086;30.354;2023-06-22T09:11:39;10.80;;;4.97;;
78672;SDS011;67988;60.086;30.354;2023-06-22T09:14:06;9.82;;;4.03;;
78672;SDS011;67988;60.086;30.354;2023-06-22T09:16:33;6.50;;;4.45;;
78672;SDS011;67988;60.086;30.354;2023-06-22T09:19:00;8.15;;;4.53;;
78672;SDS011;67988;60.086;30.354;2023-06-22T09:21:27;16.52;;;4.32;;
78672;SDS011;67988;60.086;30.354;2023-06-22T09:23:55;17.38;;;5.03;;
78672;SDS011;67988;60.086;30.354;2023-06-22T09:26:22;11.77;;;4.93;;
78672;SDS011;67988;60.086;30.354;2023-06-22T09:28:51;13.20;;;5.18;;
78672;SDS011;67988;60.086;30.354;2023-06-22T09:31:18;12.20;;;5.57;;
78672;SDS011;67988;60.086;30.354;2023-06-22T09:33:51;19.25;;;4.72;;
78672;SDS011;67988;60.086;30.354;2023-06-22T09:36:19;7.45;;;4.35;;
78672;SDS011;67988;60.086;30.354;2023-06-22T09:38:46;8.68;;;5.05;;
78672;SDS011;67988;60.086;30.354;2023-06-22T09:41:14;7.80;;;3.72;;
78672;SDS011;67988;60.086;30.354;2023-06-22T09:43:41;6.18;;;3.95;;
78672;SDS011;67988;60.086;30.354;2023-06-22T09:46:10;15.07;;;4.20;;
78672;SDS011;67988;60.086;30.354;2023-06-22T09:48:37;12.07;;;4.28;;
78672;SDS011;67988;60.086;30.354;2023-06-22T09:51:04;31.73;;;5.32;;
78672;SDS011;67988;60.086;30.354;2023-06-22T09:53:31;13.15;;;5.10;;
78672;SDS011;67988;60.086;30.354;2023-06-22T09:55:58;11.82;;;4.20;;
78672;SDS011;67988;60.086;30.354;2023-06-22T09:58:25;9.70;;;4.97;;
78672;SDS011;67988;60.086;30.354;2023-06-22T10:00:52;12.40;;;4.68;;
78672;SDS011;67988;60.086;30.354;2023-06-22T10:05:48;30.27;;;6.10;;
78672;SDS011;67988;60.086;30.354;2023-06-22T10:08:15;17.75;;;6.55;;
78672;SDS011;67988;60.086;30.354;2023-06-22T10:10:42;21.85;;;6.32;;
78672;SDS011;67988;60.086;30.354;2023-06-22T10:13:09;14.20;;;5.65;;
78672;SDS011;67988;60.086;30.354;2023-06-22T10:15:37;17.77;;;8.00;;
78672;SDS011;67988;60.086;30.354;2023-06-22T10:18:05;35.08;;;7.68;;
78672;SDS011;67988;60.086;30.354;2023-06-22T10:20:33;16.90;;;5.63;;
78672;SDS011;67988;60.086;30.354;2023-06-22T10:23:00;15.70;;;5.72;;
78672;SDS011;67988;60.086;30.354;2023-06-22T10:25:27;8.88;;;5.10;;
78672;SDS011;67988;60.086;30.354;2023-06-22T10:30:21;10.43;;;4.45;;
78672;SDS011;67988;60.086;30.354;2023-06-22T10:32:48;14.77;;;4.75;;
78672;SDS011;67988;60.086;30.354;2023-06-22T10:35:15;13.77;;;6.15;;
78672;SDS011;67988;60.086;30.354;2023-06-22T10:37:44;16.30;;;5.32;;
78672;SDS011;67988;60.086;30.354;2023-06-22T10:40:13;15.48;;;5.63;;
78672;SDS011;67988;60.086;30.354;2023-06-22T10:42:41;17.45;;;5.43;;
78672;SDS011;67988;60.086;30.354;2023-06-22T10:45:08;10.07;;;5.88;;
78672;SDS011;67988;60.086;30.354;2023-06-22T10:47:36;21.17;;;7.65;;
78672;SDS011;67988;60.086;30.354;2023-06-22T10:52:30;18.52;;;3.72;;
78672;SDS011;67988;60.086;30.354;2023-06-22T10:54:59;15.90;;;5.47;;
78672;SDS011;67988;60.086;30.354;2023-06-22T10:57:26;13.15;;;5.45;;
78672;SDS011;67988;60.086;30.354;2023-06-22T10:59:53;8.50;;;5.75;;
78672;SDS011;67988;60.086;30.354;2023-06-22T11:02:20;9.88;;;5.53;;
78672;SDS011;67988;60.086;30.354;2023-06-22T11:04:47;13.73;;;5.47;;
78672;SDS011;67988;60.086;30.354;2023-06-22T11:07:15;11.60;;;5.18;;
78672;SDS011;67988;60.086;30.354;2023-06-22T11:09:42;12.00;;;5.55;;
78672;SDS011;67988;60.086;30.354;2023-06-22T11:12:11;14.35;;;5.95;;
78672;SDS011;67988;60.086;30.354;2023-06-22T11:14:38;22.45;;;6.20;;
78672;SDS011;67988;60.086;30.354;2023-06-22T11:17:05;9.23;;;4.72;;
78672;SDS011;67988;60.086;30.354;2023-06-22T11:19:32;8.23;;;4.28;;
78672;SDS011;67988;60.086;30.354;2023-06-22T11:24:26;7.20;;;4.68;;
78672;SDS011;67988;60.086;30.354;2023-06-22T11:29:21;13.20;;;5.45;;
78672;SDS011;67988;60.086;30.354;2023-06-22T11:31:48;11.85;;;5.47;;
78672;SDS011;67988;60.086;30.354;2023-06-22T11:34:15;8.68;;;4.57;;
78672;SDS011;67988;60.086;30.354;2023-06-22T11:36:44;12.70;;;5.32;;
78672;SDS011;67988;60.086;30.354;2023-06-22T11:39:12;19.80;;;6.15;;
78672;SDS011;67988;60.086;30.354;2023-06-22T11:41:40;20.95;;;7.20;;
78672;SDS011;67988;60.086;30.354;2023-06-22T11:46:35;9.13;;;5.47;;
78672;SDS011;67988;60.086;30.354;2023-06-22T11:49:03;11.80;;;5.85;;
78672;SDS011;67988;60.086;30.354;2023-06-22T11:53:57;16.02;;;5.03;;
78672;SDS011;67988;60.086;30.354;2023-06-22T11:56:25;12.27;;;4.88;;
78672;SDS011;67988;60.086;30.354;2023-06-22T11:58:53;19.58;;;5.57;;
78672;SDS011;67988;60.086;30.354;2023-06-22T12:01:20;10.75;;;5.13;;
78672;SDS011;67988;60.086;30.354;2023-06-22T12:03:49;13.73;;;6.10;;
78672;SDS011;67988;60.086;30.354;2023-06-22T12:06:16;12.95;;;5.80;;
78672;SDS011;67988;60.086;30.354;2023-06-22T12:08:43;20.85;;;7.32;;
78672;SDS011;67988;60.086;30.354;2023-06-22T12:11:11;22.58;;;6.68;;
78672;SDS011;67988;60.086;30.354;2023-06-22T12:13:38;11.07;;;4.97;;
78672;SDS011;67988;60.086;30.354;2023-06-22T12:16:05;7.68;;;3.72;;
78672;SDS011;67988;60.086;30.354;2023-06-22T12:18:32;18.00;;;5.82;;
78672;SDS011;67988;60.086;30.354;2023-06-22T12:23:27;18.00;;;4.78;;
78672;SDS011;67988;60.086;30.354;2023-06-22T12:25:54;10.02;;;4.88;;
78672;SDS011;67988;60.086;30.354;2023-06-22T12:28:22;11.43;;;4.47;;
78672;SDS011;67988;60.086;30.354;2023-06-22T12:30:49;10.80;;;4.63;;
78672;SDS011;67988;60.086;30.354;2023-06-22T12:33:17;10.13;;;3.65;;
78672;SDS011;67988;60.086;30.354;2023-06-22T12:35:44;17.85;;;4.88;;
78672;SDS011;67988;60.086;30.354;2023-06-22T12:38:15;6.93;;;4.28;;
78672;SDS011;67988;60.086;30.354;2023-06-22T12:40:42;13.00;;;4.90;;
78672;SDS011;67988;60.086;30.354;2023-06-22T12:43:09;8.20;;;4.72;;
78672;SDS011;67988;60.086;30.354;2023-06-22T12:45:36;7.75;;;4.10;;
78672;SDS011;67988;60.086;30.354;2023-06-22T12:48:04;16.40;;;4.47;;
78672;SDS011;67988;60.086;30.354;2023-06-22T12:50:32;21.27;;;5.85;;
78672;SDS011;67988;60.086;30.354;2023-06-22T12:52:59;12.93;;;4.90;;
78672;SDS011;67988;60.086;30.354;2023-06-22T12:55:29;14.05;;;4.82;;
78672;SDS011;67988;60.086;30.354;2023-06-22T12:57:56;17.60;;;5.20;;
78672;SDS011;67988;60.086;30.354;2023-06-22T13:00:23;38.03;;;7.80;;
78672;SDS011;67988;60.086;30.354;2023-06-22T13:02:50;10.38;;;5.03;;
78672;SDS011;67988;60.086;30.354;2023-06-22T13:05:17;10.20;;;5.38;;
78672;SDS011;67988;60.086;30.354;2023-06-22T13:07:45;17.08;;;5.57;;
78672;SDS011;67988;60.086;30.354;2023-06-22T13:10:12;17.20;;;5.97;;
78672;SDS011;67988;60.086;30.354;2023-06-22T13:12:40;15.23;;;5.32;;
78672;SDS011;67988;60.086;30.354;2023-06-22T13:15:07;31.25;;;7.75;;
78672;SDS011;67988;60.086;30.354;2023-06-22T13:20:01;171.00;;;23.73;;
78672;SDS011;67988;60.086;30.354;2023-06-22T13:22:30;69.05;;;12.10;;
78672;SDS011;67988;60.086;30.354;2023-06-22T13:24:59;48.78;;;11.52;;
78672;SDS011;67988;60.086;30.354;2023-06-22T13:27:27;163.80;;;21.20;;
78672;SDS011;67988;60.086;30.354;2023-06-22T13:29:56;19.73;;;8.43;;
78672;SDS011;67988;60.086;30.354;2023-06-22T13:32:23;69.60;;;12.65;;
78672;SDS011;67988;60.086;30.354;2023-06-22T13:37:17;34.30;;;9.73;;
78672;SDS011;67988;60.086;30.354;2023-06-22T13:39:44;21.00;;;9.13;;
78672;SDS011;67988;60.086;30.354;2023-06-22T13:42:11;17.67;;;8.07;;
78672;SDS011;67988;60.086;30.354;2023-06-22T13:44:38;14.60;;;7.82;;
78672;SDS011;67988;60.086;30.354;2023-06-22T13:47:07;13.73;;;8.50;;
78672;SDS011;67988;60.086;30.354;2023-06-22T13:49:34;18.60;;;8.40;;
78672;SDS011;67988;60.086;30.354;2023-06-22T13:52:01;23.83;;;9.15;;
78672;SDS011;67988;60.086;30.354;2023-06-22T13:54:28;17.08;;;7.13;;
78672;SDS011;67988;60.086;30.354;2023-06-22T13:56:55;14.68;;;8.02;;
78672;SDS011;67988;60.086;30.354;2023-06-22T13:59:22;16.75;;;8.68;;
78672;SDS011;67988;60.086;30.354;2023-06-22T14:01:51;11.65;;;7.65;;
78672;SDS011;67988;60.086;30.354;2023-06-22T14:04:21;16.63;;;7.80;;
78672;SDS011;67988;60.086;30.354;2023-06-22T14:06:48;15.25;;;7.53;;
78672;SDS011;67988;60.086;30.354;2023-06-22T14:09:15;15.32;;;9.10;;
78672;SDS011;67988;60.086;30.354;2023-06-22T14:11:42;22.15;;;9.00;;
78672;SDS011;67988;60.086;30.354;2023-06-22T14:14:09;20.55;;;9.20;;
78672;SDS011;67988;60.086;30.354;2023-06-22T14:16:36;21.67;;;9.45;;
78672;SDS011;67988;60.086;30.354;2023-06-22T14:19:03;31.35;;;10.48;;
78672;SDS011;67988;60.086;30.354;2023-06-22T14:21:31;36.70;;;9.32;;
78672;SDS011;67988;60.086;30.354;2023-06-22T14:23:58;14.88;;;8.32;;
78672;SDS011;67988;60.086;30.354;2023-06-22T14:26:25;16.02;;;8.90;;
78672;SDS011;67988;60.086;30.354;2023-06-22T14:28:52;28.23;;;9.15;;
78672;SDS011;67988;60.086;30.354;2023-06-22T14:31:20;24.98;;;9.77;;
78672;SDS011;67988;60.086;30.354;2023-06-22T14:33:47;27.67;;;7.57;;
78672;SDS011;67988;60.086;30.354;2023-06-22T14:36:15;18.52;;;7.40;;
78672;SDS011;67988;60.086;30.354;2023-06-22T14:38:44;25.15;;;7.25;;
78672;SDS011;67988;60.086;30.354;2023-06-22T14:41:12;51.20;;;8.23;;
78672;SDS011;67988;60.086;30.354;2023-06-22T14:43:43;69.35;;;11.13;;
78672;SDS011;67988;60.086;30.354;2023-06-22T14:46:12;23.08;;;4.13;;
78672;SDS011;67988;60.086;30.354;2023-06-22T14:48:39;17.90;;;6.20;;
78672;SDS011;67988;60.086;30.354;2023-06-22T14:51:06;13.93;;;4.05;;
78672;SDS011;67988;60.086;30.354;2023-06-22T14:53:34;10.95;;;3.20;;
78672;SDS011;67988;60.086;30.354;2023-06-22T14:56:02;11.35;;;4.80;;
78672;SDS011;67988;60.086;30.354;2023-06-22T14:58:30;7.95;;;3.33;;
78672;SDS011;67988;60.086;30.354;2023-06-22T15:00:58;6.60;;;3.72;;
78672;SDS011;67988;60.086;30.354;2023-06-22T15:03:25;6.53;;;3.53;;
78672;SDS011;67988;60.086;30.354;2023-06-22T15:05:54;6.90;;;4.07;;
78672;SDS011;67988;60.086;30.354;2023-06-22T15:08:21;5.75;;;4.15;;
78672;SDS011;67988;60.086;30.354;2023-06-22T15:10:48;13.02;;;5.28;;
78672;SDS011;67988;60.086;30.354;2023-06-22T15:13:17;7.10;;;3.95;;
78672;SDS011;67988;60.086;30.354;2023-06-22T15:15:45;7.20;;;3.60;;